Startpagina
METAR-TAF:

METAR-TAF

Vliegvelden :

Lechveld, Duitsland

breedte: 48-11N, lengte: 010-52E, hoogte: 555 m

Actueel weer

Dit bericht is 22 minuten geleden gemaakt, om 23:20 UTC
Wind 13 kt uit het zuidwesten
Temperatuur 14°C
Vochtigheid 67%
Druk 1004 hPa
Zicht 10 km of meer

METAR: ETSL 052320Z AUTO 22013KT 9999 // ////// 14/08 Q1004 ///

Tijdstip: 01:42 (23:42 UTC)


TAF: ontbreekt

Waarnemingen en weersverwachtingen van meer dan 4000 vliegvelden (METAR en TAF).

De beschikbare stations zijn de gele en rode punten op de kaart.

Ga met uw muis naar het station om de naam te zien.

Klik dan om waarnemingen en weersverwachtingen te zien.

kaart wijzigen: klik op de groene knoppen met een zwart kruis om in te zoomen, op de groene knop met een streepje om uit te zoomen of op de groene pijlen voor aangrenzende kaarten.


METAR-TAF: